createdAt,value
2018-11-12T00:01:34.231Z,100331.23
2018-11-12T00:04:02.829Z,100347.00
2018-11-12T00:06:31.909Z,100345.19
2018-11-12T00:09:00.454Z,100343.86
2018-11-12T00:11:29.016Z,100347.36
2018-11-12T00:13:57.495Z,100347.27
2018-11-12T00:16:26.022Z,100342.94
2018-11-12T00:18:54.767Z,100348.13
2018-11-12T00:21:23.304Z,100345.95
2018-11-12T00:23:52.023Z,100356.16
2018-11-12T00:26:20.554Z,100353.60
2018-11-12T00:28:49.130Z,100366.91
2018-11-12T00:31:17.666Z,100352.37
2018-11-12T00:33:46.166Z,100364.36
2018-11-12T00:36:14.950Z,100368.87
2018-11-12T00:38:43.478Z,100361.89
2018-11-12T00:41:12.295Z,100368.96
2018-11-12T00:43:41.212Z,100374.25
2018-11-12T00:46:09.895Z,100368.59
2018-11-12T00:48:38.431Z,100385.77
2018-11-12T00:51:07.132Z,100384.91
2018-11-12T00:53:35.778Z,100384.81
2018-11-12T00:56:04.384Z,100385.86
2018-11-12T00:58:33.070Z,100387.55
2018-11-12T01:01:01.677Z,100395.56
2018-11-12T01:03:30.574Z,100405.67
2018-11-12T01:05:59.063Z,100409.36
2018-11-12T01:08:27.675Z,100411.05
2018-11-12T01:10:56.293Z,100399.80
2018-11-12T01:13:24.823Z,100411.23
2018-11-12T01:15:53.590Z,100413.50
2018-11-12T01:18:22.060Z,100417.06
2018-11-12T01:20:50.823Z,100340.77
2018-11-12T01:23:19.341Z,100420.66
2018-11-12T01:25:47.893Z,100409.48
2018-11-12T01:30:47.743Z,100419.51
2018-11-12T01:33:16.206Z,100427.98
2018-11-12T01:35:44.690Z,100422.78
2018-11-12T01:38:13.468Z,100431.58
2018-11-12T01:40:41.992Z,100435.72
2018-11-12T01:43:10.736Z,100435.34
2018-11-12T01:45:39.459Z,100432.88
2018-11-12T01:48:08.074Z,100435.69
2018-11-12T01:50:36.583Z,100439.83
2018-11-12T01:53:05.711Z,100440.74
2018-11-12T01:55:34.217Z,100432.80
2018-11-12T01:58:02.864Z,100451.03
2018-11-12T02:00:31.551Z,100459.03
2018-11-12T02:03:00.143Z,100456.94
2018-11-12T02:05:28.911Z,100334.50
2018-11-12T02:07:57.468Z,100456.66
2018-11-12T02:10:26.095Z,100455.88
2018-11-12T02:12:54.632Z,100470.89
2018-11-12T02:15:23.164Z,100474.66
2018-11-12T02:17:52.023Z,100452.31
2018-11-12T02:20:21.567Z,100467.27
2018-11-12T02:22:50.937Z,100470.45
2018-11-12T02:25:19.965Z,100480.19
2018-11-12T02:27:48.722Z,100477.05
2018-11-12T02:30:23.466Z,100486.53
2018-11-12T02:32:52.021Z,100487.28
2018-11-12T02:35:20.536Z,100482.38
2018-11-12T02:37:49.087Z,100490.30
2018-11-12T02:40:17.612Z,100494.66
2018-11-12T02:42:46.378Z,100451.43
2018-11-12T02:45:15.119Z,100488.52
2018-11-12T02:47:44.459Z,100489.38
2018-11-12T02:50:17.285Z,100493.52
2018-11-12T02:52:45.834Z,100492.36
2018-11-12T02:55:15.363Z,100495.54
2018-11-12T02:57:45.039Z,100502.39
2018-11-12T03:00:17.873Z,100502.48
2018-11-12T03:02:46.528Z,100502.27
2018-11-12T03:05:15.231Z,100501.89
2018-11-12T03:07:44.006Z,100498.10
2018-11-12T03:10:15.987Z,100497.70
2018-11-12T03:12:44.514Z,100503.47
2018-11-12T03:15:14.090Z,100502.98
2018-11-12T03:17:43.379Z,100504.84
2018-11-12T03:20:13.778Z,100498.78
2018-11-12T03:22:42.258Z,100505.00
2018-11-12T03:25:12.660Z,100501.58
2018-11-12T03:27:42.126Z,100503.27
2018-11-12T03:30:12.680Z,100517.05
2018-11-12T03:32:41.407Z,100519.61
2018-11-12T03:35:11.373Z,100512.14
2018-11-12T03:37:40.743Z,100519.69
2018-11-12T03:40:11.508Z,100517.42
2018-11-12T03:42:40.029Z,100521.22
2018-11-12T03:45:11.113Z,100527.69
2018-11-12T03:47:40.063Z,100530.32
2018-11-12T03:50:11.098Z,100536.76
2018-11-12T03:52:39.903Z,100537.54
2018-11-12T03:55:09.475Z,100554.53
2018-11-12T03:57:38.039Z,100550.00
2018-11-12T04:00:12.657Z,100548.06
2018-11-12T04:02:41.588Z,100541.91
2018-11-12T04:05:10.499Z,100544.39
2018-11-12T04:07:40.050Z,100549.30
2018-11-12T04:10:10.698Z,100557.22
2018-11-12T04:12:39.743Z,100508.84
2018-11-12T04:15:10.575Z,100561.67
2018-11-12T04:17:39.608Z,100569.14
2018-11-12T04:20:09.938Z,100570.55
2018-11-12T04:22:39.534Z,100574.09
2018-11-12T04:25:09.166Z,100570.13
2018-11-12T04:27:38.178Z,100469.23
2018-11-12T04:30:10.156Z,100576.81
2018-11-12T04:32:38.678Z,100584.73
2018-11-12T04:35:08.062Z,100590.34
2018-11-12T04:37:37.176Z,100595.92
2018-11-12T04:40:06.875Z,100589.23
2018-11-12T04:42:35.623Z,100601.90
2018-11-12T04:45:04.414Z,100603.14
2018-11-12T04:47:33.407Z,100610.49
2018-11-12T04:50:01.947Z,100612.30
2018-11-12T04:52:30.583Z,100613.05
2018-11-12T04:54:59.131Z,100605.29
2018-11-12T04:57:27.723Z,100606.45
2018-11-12T04:59:56.372Z,100598.27
2018-11-12T05:02:25.990Z,100617.91
2018-11-12T05:04:54.966Z,100625.98
2018-11-12T05:07:23.590Z,100627.47
2018-11-12T05:09:52.475Z,100627.47
2018-11-12T05:12:21.007Z,100622.77
2018-11-12T05:14:49.648Z,100620.99
2018-11-12T05:17:18.117Z,100623.63
2018-11-12T05:19:46.699Z,100621.91
2018-11-12T05:22:15.171Z,100630.84
2018-11-12T05:24:43.859Z,100629.61
2018-11-12T05:27:12.724Z,100639.55
2018-11-12T05:29:41.221Z,100638.84
2018-11-12T05:32:10.032Z,100646.84
2018-11-12T05:34:38.668Z,100648.55
2018-11-12T05:37:07.442Z,100648.62
2018-11-12T05:39:35.990Z,100637.63
2018-11-12T05:42:04.559Z,100658.74
2018-11-12T05:44:33.465Z,100607.05
2018-11-12T05:47:01.944Z,100665.66
2018-11-12T05:49:30.744Z,100668.45
2018-11-12T05:51:59.249Z,100660.23
2018-11-12T05:54:27.796Z,100667.44
2018-11-12T05:56:57.174Z,100643.92
2018-11-12T05:59:25.694Z,100672.48
2018-11-12T06:01:54.299Z,100674.49
2018-11-12T06:04:22.955Z,100680.30
2018-11-12T06:06:51.856Z,100678.22
2018-11-12T06:09:20.379Z,100692.33
2018-11-12T06:11:49.210Z,100692.89
2018-11-12T06:14:17.785Z,100690.25
2018-11-12T06:16:46.386Z,100695.59
2018-11-12T06:19:14.939Z,100694.36
2018-11-12T06:21:43.394Z,100699.22
2018-11-12T06:24:12.323Z,100704.50
2018-11-12T06:26:41.046Z,100705.44
2018-11-12T06:29:10.018Z,100701.48
2018-11-12T06:31:38.956Z,100712.48
2018-11-12T06:34:07.567Z,100714.22
2018-11-12T06:36:36.220Z,100720.25
2018-11-12T06:39:07.711Z,100716.62
2018-11-12T06:41:36.296Z,100714.75
2018-11-12T06:44:05.606Z,100710.27
2018-11-12T06:46:34.142Z,100722.52
2018-11-12T06:49:02.757Z,100719.88
2018-11-12T06:51:31.374Z,100717.38
2018-11-12T06:53:59.843Z,100726.88
2018-11-12T06:56:28.686Z,100733.14
2018-11-12T06:58:57.191Z,100737.58
2018-11-12T07:01:25.954Z,100732.45
2018-11-12T07:03:54.623Z,100739.43
2018-11-12T07:06:23.184Z,100740.90
2018-11-12T07:08:52.097Z,100724.34
2018-11-12T07:11:20.900Z,100751.83
2018-11-12T07:13:49.853Z,100757.52
2018-11-12T07:16:18.779Z,100756.20
2018-11-12T07:18:47.816Z,100761.33
2018-11-12T07:21:16.338Z,100754.17
2018-11-12T07:23:45.062Z,100755.90
2018-11-12T07:26:13.567Z,100759.30
2018-11-12T07:28:42.239Z,100754.96
2018-11-12T07:31:11.180Z,100761.03
2018-11-12T07:33:40.130Z,100757.60
2018-11-12T07:36:09.147Z,100749.30
2018-11-12T07:38:37.903Z,100766.92
2018-11-12T07:41:06.884Z,100766.61
2018-11-12T07:43:35.470Z,100771.02
2018-11-12T07:46:04.659Z,100780.26
2018-11-12T07:48:33.364Z,100784.62
2018-11-12T07:51:02.014Z,100781.99
2018-11-12T07:53:30.789Z,100791.61
2018-11-12T07:55:59.319Z,100800.53
2018-11-12T07:58:27.993Z,100731.83
2018-11-12T08:00:56.644Z,100791.91
2018-11-12T08:03:25.643Z,100793.23
2018-11-12T08:05:54.111Z,100790.14
2018-11-12T08:08:22.659Z,100797.45
2018-11-12T08:10:51.174Z,100802.63
2018-11-12T08:13:19.719Z,100806.05
2018-11-12T08:15:48.787Z,100745.23
2018-11-12T08:18:17.903Z,100802.81
2018-11-12T08:20:46.951Z,100810.50
2018-11-12T08:23:15.547Z,100818.73
2018-11-12T08:25:44.684Z,100818.12
2018-11-12T08:28:13.300Z,100821.00
2018-11-12T08:30:42.311Z,100815.56
2018-11-12T08:33:12.905Z,100801.80
2018-11-12T08:35:42.030Z,100696.87
2018-11-12T08:38:11.386Z,100817.56
2018-11-12T08:40:40.748Z,100823.59
2018-11-12T08:43:09.943Z,100834.80
2018-11-12T08:45:39.162Z,100829.89
2018-11-12T08:48:07.931Z,100834.72
2018-11-12T08:50:38.354Z,100832.38
2018-11-12T08:53:07.046Z,100836.76
2018-11-12T08:55:36.236Z,100836.61
2018-11-12T08:58:08.099Z,100843.58
2018-11-12T09:00:37.312Z,100797.69
2018-11-12T09:03:06.162Z,100845.70
2018-11-12T09:05:35.394Z,100844.75
2018-11-12T09:08:04.927Z,100849.47
2018-11-12T09:10:34.766Z,100851.20
2018-11-12T09:13:03.370Z,100851.20
2018-11-12T09:15:32.220Z,100852.75
2018-11-12T09:18:00.859Z,100855.62
2018-11-12T09:20:29.785Z,100858.52
2018-11-12T09:22:58.409Z,100861.53
2018-11-12T09:25:27.942Z,100868.14
2018-11-12T09:27:56.654Z,100871.73
2018-11-12T09:30:26.254Z,100868.94
2018-11-12T09:32:55.197Z,100860.86
2018-11-12T09:35:25.859Z,100865.42
2018-11-12T09:37:55.317Z,100870.17
2018-11-12T09:40:25.495Z,100872.28
2018-11-12T09:42:54.344Z,100877.16
2018-11-12T09:45:22.866Z,100866.43
2018-11-12T09:47:51.768Z,100862.88
2018-11-12T09:50:21.490Z,100874.45
2018-11-12T09:52:51.354Z,100874.68
2018-11-12T09:55:20.783Z,100876.30
2018-11-12T09:57:52.378Z,100877.09
2018-11-12T10:00:21.561Z,100882.23
2018-11-12T10:02:51.622Z,100896.20
2018-11-12T10:05:20.888Z,100890.00
2018-11-12T10:07:53.154Z,100879.80
2018-11-12T10:10:47.626Z,100891.84
2018-11-12T10:13:19.511Z,100882.52
2018-11-12T10:15:49.463Z,100888.83
2018-11-12T10:18:15.063Z,100882.45
2018-11-12T10:20:43.620Z,100879.80
2018-11-12T10:23:12.227Z,100878.42
2018-11-12T10:25:40.736Z,100887.10
2018-11-12T10:28:09.326Z,100890.45
2018-11-12T10:30:37.914Z,100880.56
2018-11-12T10:33:06.990Z,100889.44
2018-11-12T10:35:35.643Z,100887.09
2018-11-12T10:38:04.680Z,100892.71
2018-11-12T10:40:33.164Z,100888.41
2018-11-12T10:43:01.752Z,100900.64
2018-11-12T10:45:30.311Z,100892.71
2018-11-12T10:47:58.902Z,100886.10
2018-11-12T10:50:27.591Z,100900.48
2018-11-12T10:52:56.115Z,100903.58
2018-11-12T10:55:25.934Z,100901.40
2018-11-12T10:57:54.472Z,100895.95
2018-11-12T11:00:32.538Z,100816.72
2018-11-12T11:03:07.436Z,100847.40
2018-11-12T11:05:37.359Z,100902.09
2018-11-12T11:08:06.089Z,100909.64
2018-11-12T11:10:34.896Z,100906.84
2018-11-12T11:13:04.251Z,100906.31
2018-11-12T11:15:33.698Z,100908.47
2018-11-12T11:18:02.210Z,100905.36
2018-11-12T11:20:31.327Z,100909.25
2018-11-12T11:23:00.127Z,100920.85
2018-11-12T11:25:28.819Z,100917.12
2018-11-12T11:27:57.389Z,100914.86
2018-11-12T11:30:25.868Z,100916.41
2018-11-12T11:32:54.680Z,100914.72
2018-11-12T11:35:23.416Z,100923.02
2018-11-12T11:37:52.160Z,100911.81
2018-11-12T11:40:23.061Z,100911.28
2018-11-12T11:42:52.058Z,100907.77
2018-11-12T11:45:21.154Z,100910.91
2018-11-12T11:47:50.897Z,100794.02
2018-11-12T11:50:20.884Z,100914.61
2018-11-12T11:52:49.507Z,100915.72
2018-11-12T11:55:19.478Z,100919.30
2018-11-12T11:57:48.456Z,100915.72
2018-11-12T12:00:23.162Z,100913.45
2018-11-12T12:02:52.869Z,100915.27
2018-11-12T12:05:22.411Z,100908.81
2018-11-12T12:07:51.562Z,100911.05
2018-11-12T12:10:20.260Z,100910.13
2018-11-12T12:12:49.801Z,100903.42
2018-11-12T12:15:19.606Z,100902.67
2018-11-12T12:17:48.220Z,100900.78
2018-11-12T12:20:18.255Z,100903.42
2018-11-12T12:22:46.886Z,100895.65
2018-11-12T12:25:16.562Z,100900.78
2018-11-12T12:27:45.642Z,100898.29
2018-11-12T12:30:17.616Z,100899.61
2018-11-12T12:32:47.015Z,100899.23
2018-11-12T12:35:15.684Z,100898.29
2018-11-12T12:37:45.083Z,100891.16
2018-11-12T12:40:15.060Z,100896.59
2018-11-12T12:42:43.753Z,100896.44
2018-11-12T12:45:13.910Z,100899.00
2018-11-12T12:47:42.727Z,100898.92
2018-11-12T12:50:12.870Z,100901.04
2018-11-12T12:52:41.399Z,100904.06
2018-11-12T12:55:11.034Z,100902.58
2018-11-12T12:57:40.088Z,100894.28
2018-11-12T13:00:19.939Z,100886.19
2018-11-12T13:02:48.871Z,100892.23
2018-11-12T13:05:17.383Z,100896.61
2018-11-12T13:07:46.070Z,100905.30
2018-11-12T13:10:15.794Z,100901.78
2018-11-12T13:12:44.258Z,100897.37
2018-11-12T13:15:15.098Z,100901.70
2018-11-12T13:17:44.458Z,100899.63
2018-11-12T13:20:14.347Z,100902.80
2018-11-12T13:22:44.019Z,100906.39
2018-11-12T13:25:12.501Z,100904.13
2018-11-12T13:27:41.323Z,100898.84
2018-11-12T13:30:13.186Z,100897.14
2018-11-12T13:32:42.459Z,100775.48
2018-11-12T13:35:13.406Z,100898.39
2018-11-12T13:37:42.515Z,100890.54
2018-11-12T13:40:17.572Z,100890.84
2018-11-12T13:42:47.347Z,100896.36
2018-11-12T13:45:16.166Z,100824.23
2018-11-12T13:47:45.103Z,100897.23
2018-11-12T13:50:15.237Z,100893.95
2018-11-12T13:52:43.950Z,100893.01
2018-11-12T13:55:13.551Z,100896.52
2018-11-12T13:57:42.043Z,100888.13
2018-11-12T14:00:12.854Z,100886.55
2018-11-12T14:02:42.035Z,100887.87
2018-11-12T14:05:12.848Z,100896.75
2018-11-12T14:07:41.892Z,100895.80
2018-11-12T14:10:12.119Z,100889.20
2018-11-12T14:12:41.164Z,100891.31
2018-11-12T14:15:12.061Z,100889.61
2018-11-12T14:17:41.034Z,100887.42
2018-11-12T14:20:09.850Z,100785.96
2018-11-12T14:22:38.882Z,100889.61
2018-11-12T14:25:08.997Z,100890.52
2018-11-12T14:27:37.535Z,100893.16
2018-11-12T14:30:07.942Z,100887.12
2018-11-12T14:32:36.526Z,100877.77
2018-11-12T14:35:06.443Z,100887.12
2018-11-12T14:37:35.027Z,100888.03
2018-11-12T14:40:03.704Z,100887.66
2018-11-12T14:42:32.184Z,100873.66
2018-11-12T14:45:00.850Z,100881.20
2018-11-12T14:47:29.542Z,100881.20
2018-11-12T14:49:58.002Z,100881.35
2018-11-12T14:52:27.099Z,100874.90
2018-11-12T14:54:55.651Z,100879.80
2018-11-12T14:57:24.416Z,100882.45
2018-11-12T14:59:52.930Z,100879.02
2018-11-12T15:02:21.494Z,100884.37
2018-11-12T15:04:50.194Z,100887.47
2018-11-12T15:07:18.661Z,100886.15
2018-11-12T15:09:47.431Z,100888.11
2018-11-12T15:12:15.911Z,100881.58
2018-11-12T15:14:47.386Z,100887.39
2018-11-12T15:17:15.967Z,100896.11
2018-11-12T15:19:44.815Z,100897.02
2018-11-12T15:22:13.370Z,100886.45
2018-11-12T15:24:42.279Z,100885.61
2018-11-12T15:27:10.746Z,100878.71
2018-11-12T15:29:39.395Z,100880.41
2018-11-12T15:32:08.270Z,100873.43
2018-11-12T15:34:36.880Z,100867.20
2018-11-12T15:37:05.767Z,100865.50
2018-11-12T15:39:34.199Z,100856.34
2018-11-12T15:42:03.211Z,100774.76
2018-11-12T15:44:31.687Z,100854.91
2018-11-12T15:47:00.446Z,100854.45
2018-11-12T15:49:28.990Z,100849.17
2018-11-12T15:51:57.536Z,100840.87
2018-11-12T15:54:26.192Z,100843.73
2018-11-12T15:56:54.718Z,100835.33
2018-11-12T15:59:23.752Z,100828.34
2018-11-12T16:01:52.386Z,100831.14
2018-11-12T16:04:21.295Z,100823.30
2018-11-12T16:06:49.949Z,100825.86
2018-11-12T16:09:19.348Z,100817.94
2018-11-12T16:11:47.950Z,100818.73
2018-11-12T16:14:16.521Z,100818.73
2018-11-12T16:16:45.222Z,100820.42
2018-11-12T16:19:13.741Z,100814.61
2018-11-12T16:21:42.563Z,100813.67
2018-11-12T16:24:11.096Z,100811.11
2018-11-12T16:26:39.898Z,100812.88
2018-11-12T16:29:08.679Z,100813.59
2018-11-12T16:31:37.303Z,100811.41
2018-11-12T16:34:06.158Z,100806.69
2018-11-12T16:36:34.689Z,100809.64
2018-11-12T16:39:04.267Z,100810.50
2018-11-12T16:41:32.803Z,100803.48
2018-11-12T16:44:02.036Z,100821.06
2018-11-12T16:46:30.518Z,100814.05
2018-11-12T16:48:59.320Z,100814.92
2018-11-12T16:51:27.852Z,100818.02
2018-11-12T16:53:56.419Z,100818.34
2018-11-12T16:56:25.047Z,100817.48
2018-11-12T16:58:53.618Z,100807.07
2018-11-12T17:01:22.618Z,100799.94
2018-11-12T17:03:51.104Z,100801.11
2018-11-12T17:06:19.873Z,100805.59
2018-11-12T17:08:48.409Z,100799.45
2018-11-12T17:11:17.016Z,100805.98
2018-11-12T17:13:45.639Z,100810.88
2018-11-12T17:16:14.162Z,100802.42
2018-11-12T17:18:42.918Z,100806.77
2018-11-12T17:21:11.402Z,100797.90
2018-11-12T17:23:40.171Z,100799.22
2018-11-12T17:26:08.659Z,100812.84
2018-11-12T17:28:37.345Z,100815.06
2018-11-12T17:31:06.319Z,100815.48
2018-11-12T17:33:35.474Z,100820.34
2018-11-12T17:36:04.076Z,100810.50
2018-11-12T17:38:32.603Z,100825.48
2018-11-12T17:41:01.254Z,100829.36
2018-11-12T17:43:29.780Z,100812.69
2018-11-12T17:45:58.592Z,100820.61
2018-11-12T17:48:27.133Z,100811.36
2018-11-12T17:50:55.675Z,100809.25
2018-11-12T17:53:24.210Z,100810.12
2018-11-12T17:55:52.694Z,100816.23
2018-11-12T17:58:21.609Z,100818.88
2018-11-12T18:00:50.124Z,100809.78
2018-11-12T18:03:19.039Z,100817.33
2018-11-12T18:05:47.547Z,100817.33
2018-11-12T18:08:16.622Z,100817.33
2018-11-12T18:10:45.091Z,100820.91
2018-11-12T18:13:13.713Z,100811.26
2018-11-12T18:15:42.451Z,100812.98
2018-11-12T18:18:10.942Z,100814.39
2018-11-12T18:20:39.964Z,100811.26
2018-11-12T18:23:08.556Z,100819.11
2018-11-12T18:25:49.892Z,100818.65
2018-11-12T18:28:27.401Z,100807.70
2018-11-12T18:31:02.690Z,100802.80
2018-11-12T18:33:32.435Z,100803.59
2018-11-12T18:36:02.281Z,100808.72
2018-11-12T18:38:33.372Z,100808.72
2018-11-12T18:41:08.360Z,100809.09
2018-11-12T18:43:53.401Z,100805.14
2018-11-12T18:46:22.567Z,100803.81
2018-11-12T18:48:51.385Z,100794.58
2018-11-12T18:51:19.957Z,100805.36
2018-11-12T18:53:48.916Z,100811.44
2018-11-12T18:56:17.714Z,100806.15
2018-11-12T18:58:46.497Z,100811.44
2018-11-12T19:01:15.118Z,100816.64
2018-11-12T19:03:43.662Z,100816.15
2018-11-12T19:06:12.191Z,100820.11
2018-11-12T19:08:40.702Z,100813.92
2018-11-12T19:11:10.431Z,100725.33
2018-11-12T19:13:40.097Z,100814.83
2018-11-12T19:16:09.184Z,100823.16
2018-11-12T19:18:37.702Z,100824.48
2018-11-12T19:21:06.655Z,100822.75
2018-11-12T19:23:35.233Z,100808.16
2018-11-12T19:26:05.607Z,100830.15
2018-11-12T19:28:34.185Z,100818.26
2018-11-12T19:31:03.348Z,100823.55
2018-11-12T19:33:31.964Z,100827.88
2018-11-12T19:36:00.580Z,100826.03
2018-11-12T19:38:29.243Z,100824.25
2018-11-12T19:40:57.832Z,100830.37
2018-11-12T19:43:26.733Z,100776.75
2018-11-12T19:45:55.243Z,100828.67
2018-11-12T19:48:23.957Z,100816.72
2018-11-12T19:50:52.462Z,100824.33
2018-11-12T19:53:21.023Z,100834.89
2018-11-12T19:55:49.502Z,100837.53
2018-11-12T19:58:18.007Z,100828.83
2018-11-12T20:00:47.151Z,100822.67
2018-11-12T20:03:15.775Z,100819.20
2018-11-12T20:05:44.778Z,100819.95
2018-11-12T20:08:13.362Z,100819.20
2018-11-12T20:10:42.334Z,100820.52
2018-11-12T20:13:10.842Z,100821.84
2018-11-12T20:15:39.599Z,100816.72
2018-11-12T20:18:08.201Z,100813.13
2018-11-12T20:20:36.715Z,100818.03
2018-11-12T20:23:05.623Z,100815.39
2018-11-12T20:25:34.104Z,100798.91
2018-11-12T20:28:02.834Z,100800.23
2018-11-12T20:30:34.398Z,100802.01
2018-11-12T20:33:03.328Z,100726.20
2018-11-12T20:35:31.801Z,100791.14
2018-11-12T20:38:00.674Z,100793.03
2018-11-12T20:40:29.185Z,100796.66
2018-11-12T20:42:57.778Z,100792.77
2018-11-12T20:45:26.860Z,100797.67
2018-11-12T20:47:56.579Z,100795.56
2018-11-12T20:50:25.115Z,100777.89
2018-11-12T20:52:53.649Z,100797.91
2018-11-12T20:55:22.486Z,100798.36
2018-11-12T20:57:50.950Z,100796.66
2018-11-12T21:00:27.012Z,100794.02
2018-11-12T21:02:56.187Z,100799.30
2018-11-12T21:05:27.051Z,100798.52
2018-11-12T21:07:55.907Z,100798.59
2018-11-12T21:10:24.486Z,100787.20
2018-11-12T21:12:53.590Z,100799.61
2018-11-12T21:15:23.419Z,100793.50
2018-11-12T21:17:52.596Z,100796.63
2018-11-12T21:20:23.384Z,100803.69
2018-11-12T21:22:52.347Z,100788.68
2018-11-12T21:25:22.132Z,100799.87
2018-11-12T21:27:51.212Z,100678.78
2018-11-12T21:30:21.599Z,100799.87
2018-11-12T21:32:50.622Z,100796.45
2018-11-12T21:35:19.208Z,100798.33
2018-11-12T21:37:48.482Z,100802.67
2018-11-12T21:40:18.370Z,100801.88
2018-11-12T21:42:47.072Z,100785.28
2018-11-12T21:45:17.034Z,100786.98
2018-11-12T21:47:45.645Z,100781.32
2018-11-12T21:50:19.851Z,100786.11
2018-11-12T21:52:48.399Z,100788.83
2018-11-12T21:55:16.931Z,100790.71
2018-11-12T21:57:46.338Z,100744.70
2018-11-12T22:00:20.947Z,100795.98
2018-11-12T22:02:51.004Z,100799.53
2018-11-12T22:05:19.625Z,100796.89
2018-11-12T22:07:48.270Z,100800.86
2018-11-12T22:10:17.617Z,100799.53
2018-11-12T22:12:47.446Z,100801.80
2018-11-12T22:15:16.106Z,100798.29
2018-11-12T22:17:44.594Z,100802.73
2018-11-12T22:20:14.235Z,100799.69
2018-11-12T22:22:43.491Z,100793.65
2018-11-12T22:25:19.595Z,100798.14
2018-11-12T22:27:48.794Z,100799.15
2018-11-12T22:30:19.829Z,100802.80
2018-11-12T22:32:49.669Z,100795.80
2018-11-12T22:35:18.311Z,100798.99
2018-11-12T22:37:47.278Z,100797.83
2018-11-12T22:40:16.631Z,100800.98
2018-11-12T22:42:45.980Z,100798.12
2018-11-12T22:45:20.979Z,100791.67
2018-11-12T22:47:50.040Z,100799.73
2018-11-12T22:50:18.595Z,100797.23
2018-11-12T22:52:47.425Z,100748.48
2018-11-12T22:55:17.025Z,100796.97
2018-11-12T22:57:45.839Z,100804.13
2018-11-12T23:00:24.688Z,100797.19
2018-11-12T23:02:53.483Z,100792.92
2018-11-12T23:05:22.515Z,100797.81
2018-11-12T23:07:51.558Z,100796.23
2018-11-12T23:10:20.651Z,100795.12
2018-11-12T23:12:49.143Z,100790.48
2018-11-12T23:15:18.613Z,100788.44
2018-11-12T23:17:47.133Z,100795.23
2018-11-12T23:20:21.945Z,100796.39
2018-11-12T23:22:50.970Z,100793.03
2018-11-12T23:25:19.650Z,100791.84
2018-11-12T23:27:48.911Z,100788.73
2018-11-12T23:30:20.156Z,100797.95
2018-11-12T23:32:48.718Z,100798.23
2018-11-12T23:35:19.737Z,100781.66
2018-11-12T23:37:48.750Z,100793.62
2018-11-12T23:40:17.317Z,100789.48
2018-11-12T23:42:46.518Z,100800.03
2018-11-12T23:45:15.074Z,100701.55
2018-11-12T23:47:43.550Z,100808.07
2018-11-12T23:50:15.543Z,100808.94
2018-11-12T23:52:44.929Z,100807.07
2018-11-12T23:55:13.719Z,100809.70
2018-11-12T23:57:42.175Z,100802.59
